createdAt,value
2018-10-17T00:01:39.033Z,100793.37
2018-10-17T00:04:06.737Z,100800.66
2018-10-17T00:06:34.390Z,100797.38
2018-10-17T00:09:02.138Z,100795.08
2018-10-17T00:11:29.856Z,100795.65
2018-10-17T00:13:57.553Z,100790.67
2018-10-17T00:16:25.274Z,100783.42
2018-10-17T00:18:52.902Z,100789.62
2018-10-17T00:21:20.554Z,100787.86
2018-10-17T00:23:48.248Z,100780.87
2018-10-17T00:26:15.970Z,100779.87
2018-10-17T00:28:43.705Z,100782.02
2018-10-17T00:31:11.497Z,100776.97
2018-10-17T00:33:39.147Z,100779.30
2018-10-17T00:36:06.865Z,100779.59
2018-10-17T00:38:34.561Z,100779.75
2018-10-17T00:41:02.279Z,100773.42
2018-10-17T00:43:29.949Z,100780.52
2018-10-17T00:45:57.649Z,100773.08
2018-10-17T00:48:25.456Z,100776.91
2018-10-17T00:50:53.137Z,100772.40
2018-10-17T00:53:20.824Z,100769.66
2018-10-17T00:55:48.497Z,100772.04
2018-10-17T00:58:16.181Z,100770.81
2018-10-17T01:00:43.887Z,100765.97
2018-10-17T01:03:11.608Z,100764.35
2018-10-17T01:05:39.338Z,100762.14
2018-10-17T01:08:07.089Z,100762.17
2018-10-17T01:10:34.728Z,100764.23
2018-10-17T01:13:02.476Z,100761.98
2018-10-17T01:15:30.092Z,100761.88
2018-10-17T01:17:57.804Z,100754.45
2018-10-17T01:20:25.512Z,100759.36
2018-10-17T01:22:54.095Z,100763.13
2018-10-17T01:25:21.716Z,100763.55
2018-10-17T01:27:49.372Z,100758.61
2018-10-17T01:30:17.121Z,100756.48
2018-10-17T01:32:44.808Z,100758.19
2018-10-17T01:35:12.540Z,100755.58
2018-10-17T01:37:40.228Z,100759.16
2018-10-17T01:40:08.475Z,100761.36
2018-10-17T01:42:36.337Z,100770.95
2018-10-17T01:45:05.392Z,100768.33
2018-10-17T01:47:33.148Z,100768.26
2018-10-17T01:50:00.808Z,100769.02
2018-10-17T01:52:28.460Z,100760.26
2018-10-17T01:54:56.177Z,100762.95
2018-10-17T01:57:23.832Z,100759.06
2018-10-17T01:59:51.551Z,100750.74
2018-10-17T02:02:19.235Z,100758.34
2018-10-17T02:04:46.870Z,100760.88
2018-10-17T02:07:14.707Z,100755.56
2018-10-17T02:09:42.335Z,100765.56
2018-10-17T02:12:09.988Z,100766.93
2018-10-17T02:14:37.715Z,100768.80
2018-10-17T02:17:05.463Z,100764.55
2018-10-17T02:19:33.147Z,100766.81
2018-10-17T02:22:00.845Z,100772.00
2018-10-17T02:24:28.593Z,100768.01
2018-10-17T02:26:56.224Z,100765.20
2018-10-17T02:29:23.832Z,100760.38
2018-10-17T02:31:51.619Z,100765.77
2018-10-17T02:34:19.307Z,100762.69
2018-10-17T02:36:46.984Z,100762.28
2018-10-17T02:39:14.704Z,100761.38
2018-10-17T02:41:42.392Z,100758.74
2018-10-17T02:44:10.125Z,100757.08
2018-10-17T02:46:37.805Z,100759.52
2018-10-17T02:49:05.620Z,100756.11
2018-10-17T02:51:33.267Z,100755.05
2018-10-17T02:54:01.006Z,100758.72
2018-10-17T02:56:31.536Z,100755.25
2018-10-17T02:58:59.303Z,100760.42
2018-10-17T03:01:27.013Z,100763.60
2018-10-17T03:03:54.748Z,100767.38
2018-10-17T03:06:22.442Z,100761.41
2018-10-17T03:08:50.172Z,100763.72
2018-10-17T03:11:17.909Z,100760.73
2018-10-17T03:13:45.524Z,100764.01
2018-10-17T03:16:13.227Z,100769.05
2018-10-17T03:18:40.965Z,100764.73
2018-10-17T03:21:08.648Z,100766.88
2018-10-17T03:23:36.406Z,100772.41
2018-10-17T03:26:04.181Z,100770.98
2018-10-17T03:28:31.837Z,100773.13
2018-10-17T03:30:59.560Z,100776.48
2018-10-17T03:33:27.197Z,100775.18
2018-10-17T03:35:54.971Z,100775.30
2018-10-17T03:38:22.622Z,100776.05
2018-10-17T03:40:50.310Z,100769.89
2018-10-17T03:43:18.042Z,100767.39
2018-10-17T03:45:45.657Z,100774.61
2018-10-17T03:48:13.368Z,100775.34
2018-10-17T03:50:41.101Z,100777.19
2018-10-17T03:53:09.093Z,100787.23
2018-10-17T03:55:36.692Z,100780.70
2018-10-17T03:58:04.994Z,100790.80
2018-10-17T04:00:32.646Z,100793.00
2018-10-17T04:03:00.405Z,100791.15
2018-10-17T04:05:28.035Z,100799.88
2018-10-17T04:07:55.783Z,100802.26
2018-10-17T04:10:23.507Z,100798.75
2018-10-17T04:12:51.312Z,100796.55
2018-10-17T04:15:18.975Z,100800.50
2018-10-17T04:17:46.686Z,100799.35
2018-10-17T04:20:14.397Z,100803.37
2018-10-17T04:22:54.877Z,100803.77
2018-10-17T04:25:22.676Z,100803.14
2018-10-17T04:27:50.993Z,100807.31
2018-10-17T04:30:18.663Z,100800.41
2018-10-17T04:32:46.381Z,100795.65
2018-10-17T04:35:14.305Z,100799.72
2018-10-17T04:37:42.101Z,100795.02
2018-10-17T04:40:09.789Z,100798.05
2018-10-17T04:42:37.425Z,100797.16
2018-10-17T04:45:06.805Z,100797.59
2018-10-17T04:47:34.773Z,100801.32
2018-10-17T04:50:02.448Z,100795.70
2018-10-17T04:52:30.218Z,100797.98
2018-10-17T04:54:57.924Z,100796.85
2018-10-17T04:57:25.577Z,100784.92
2018-10-17T04:59:53.321Z,100783.10
2018-10-17T05:02:21.089Z,100786.30
2018-10-17T05:04:48.833Z,100776.41
2018-10-17T05:07:16.664Z,100782.03
2018-10-17T05:09:44.309Z,100775.70
2018-10-17T05:12:12.014Z,100788.53
2018-10-17T05:14:39.734Z,100786.09
2018-10-17T05:17:07.511Z,100794.27
2018-10-17T05:19:35.222Z,100792.31
2018-10-17T05:22:02.957Z,100793.45
2018-10-17T05:24:30.638Z,100794.94
2018-10-17T05:26:58.433Z,100796.89
2018-10-17T05:29:26.429Z,100791.78
2018-10-17T05:32:00.851Z,100793.45
2018-10-17T05:34:28.597Z,100790.77
2018-10-17T05:36:56.352Z,100789.58
2018-10-17T05:39:24.013Z,100795.17
2018-10-17T05:41:51.729Z,100797.77
2018-10-17T05:44:19.548Z,100795.17
2018-10-17T05:46:47.282Z,100789.48
2018-10-17T05:49:14.990Z,100789.17
2018-10-17T05:51:42.705Z,100790.83
2018-10-17T05:54:10.461Z,100790.72
2018-10-17T05:56:38.168Z,100791.25
2018-10-17T05:59:05.937Z,100793.86
2018-10-17T06:01:33.863Z,100793.69
2018-10-17T06:04:01.430Z,100798.01
2018-10-17T06:06:29.121Z,100799.37
2018-10-17T06:08:56.935Z,100797.10
2018-10-17T06:11:24.663Z,100798.31
2018-10-17T06:13:52.438Z,100803.70
2018-10-17T06:16:20.113Z,100808.09
2018-10-17T06:18:47.854Z,100813.88
2018-10-17T06:21:15.612Z,100815.17
2018-10-17T06:23:43.329Z,100815.17
2018-10-17T06:26:11.053Z,100815.77
2018-10-17T06:28:38.801Z,100820.70
2018-10-17T06:31:06.535Z,100818.91
2018-10-17T06:33:34.193Z,100815.82
2018-10-17T06:36:05.415Z,100821.13
2018-10-17T06:38:33.205Z,100814.39
2018-10-17T06:41:00.987Z,100816.23
2018-10-17T06:43:28.759Z,100807.28
2018-10-17T06:45:56.380Z,100810.78
2018-10-17T06:48:24.084Z,100813.88
2018-10-17T06:50:51.829Z,100812.92
2018-10-17T06:53:19.566Z,100810.95
2018-10-17T06:55:47.243Z,100813.92
2018-10-17T06:58:15.017Z,100809.75
2018-10-17T07:00:42.738Z,100805.58
2018-10-17T07:03:10.443Z,100815.23
2018-10-17T07:05:38.222Z,100816.24
2018-10-17T07:08:05.962Z,100815.40
2018-10-17T07:10:33.677Z,100818.17
2018-10-17T07:13:01.425Z,100817.70
2018-10-17T07:15:29.258Z,100814.54
2018-10-17T07:17:56.809Z,100812.05
2018-10-17T07:20:24.473Z,100812.19
2018-10-17T07:22:52.209Z,100820.26
2018-10-17T07:25:19.917Z,100817.86
2018-10-17T07:27:47.536Z,100820.63
2018-10-17T07:30:22.030Z,100823.69
2018-10-17T07:32:49.872Z,100822.31
2018-10-17T07:35:17.672Z,100829.00
2018-10-17T07:37:45.333Z,100828.66
2018-10-17T07:40:13.035Z,100826.70
2018-10-17T07:42:40.732Z,100832.39
2018-10-17T07:45:08.566Z,100828.16
2018-10-17T07:47:36.368Z,100825.04
2018-10-17T07:50:04.776Z,100825.54
2018-10-17T07:52:32.441Z,100827.30
2018-10-17T07:55:00.110Z,100826.65
2018-10-17T07:57:27.840Z,100825.52
2018-10-17T07:59:55.540Z,100828.16
2018-10-17T08:02:23.252Z,100830.22
2018-10-17T08:04:51.065Z,100828.16
2018-10-17T08:07:18.822Z,100827.72
2018-10-17T08:09:46.567Z,100836.75
2018-10-17T08:12:14.367Z,100834.49
2018-10-17T08:14:42.141Z,100835.08
2018-10-17T08:17:10.653Z,100836.10
2018-10-17T08:19:38.407Z,100833.93
2018-10-17T08:22:06.143Z,100830.56
2018-10-17T08:24:33.851Z,100834.01
2018-10-17T08:27:01.582Z,100834.56
2018-10-17T08:29:29.328Z,100831.41
2018-10-17T08:31:57.089Z,100835.09
2018-10-17T08:34:24.732Z,100836.16
2018-10-17T08:36:52.717Z,100831.13
2018-10-17T08:39:20.149Z,100832.59
2018-10-17T08:41:47.861Z,100834.42
2018-10-17T08:44:15.528Z,100838.66
2018-10-17T08:46:43.145Z,100837.73
2018-10-17T08:49:10.890Z,100834.13
2018-10-17T08:51:38.615Z,100830.34
2018-10-17T08:54:06.358Z,100830.19
2018-10-17T08:56:34.050Z,100830.95
2018-10-17T08:59:01.839Z,100834.88
2018-10-17T09:01:29.541Z,100828.34
2018-10-17T09:03:57.305Z,100825.20
2018-10-17T09:06:25.146Z,100818.11
2018-10-17T09:08:52.910Z,100826.17
2018-10-17T09:11:21.218Z,100825.16
2018-10-17T09:13:49.729Z,100824.56
2018-10-17T09:16:17.544Z,100820.61
2018-10-17T09:18:45.150Z,100823.14
2018-10-17T09:21:13.307Z,100820.47
2018-10-17T09:23:40.667Z,100817.19
2018-10-17T09:26:08.422Z,100818.92
2018-10-17T09:28:36.118Z,100820.34
2018-10-17T09:31:03.925Z,100818.75
2018-10-17T09:33:32.212Z,100816.78
2018-10-17T09:35:59.944Z,100816.32
2018-10-17T09:38:28.238Z,100812.51
2018-10-17T09:40:56.045Z,100809.77
2018-10-17T09:43:23.887Z,100812.05
2018-10-17T09:45:51.519Z,100809.30
2018-10-17T09:48:19.358Z,100810.19
2018-10-17T09:50:46.989Z,100807.41
2018-10-17T09:53:14.748Z,100805.47
2018-10-17T09:55:42.481Z,100808.50
2018-10-17T09:58:10.317Z,100807.41
2018-10-17T10:00:43.664Z,100807.13
2018-10-17T10:03:11.536Z,100807.69
2018-10-17T10:05:39.309Z,100798.84
2018-10-17T10:08:07.817Z,100794.95
2018-10-17T10:10:35.545Z,100804.38
2018-10-17T10:13:03.798Z,100801.88
2018-10-17T10:15:31.513Z,100795.70
2018-10-17T10:17:59.191Z,100793.55
2018-10-17T10:20:27.030Z,100799.28
2018-10-17T10:22:54.836Z,100794.05
2018-10-17T10:25:22.505Z,100791.36
2018-10-17T10:27:50.162Z,100790.91
2018-10-17T10:30:17.991Z,100784.53
2018-10-17T10:32:45.621Z,100781.52
2018-10-17T10:35:13.363Z,100780.97
2018-10-17T10:37:41.089Z,100777.61
2018-10-17T10:40:08.784Z,100772.78
2018-10-17T10:42:36.425Z,100764.77
2018-10-17T10:45:05.217Z,100769.52
2018-10-17T10:47:32.833Z,100770.45
2018-10-17T10:50:00.562Z,100767.39
2018-10-17T10:52:28.321Z,100768.17
2018-10-17T10:54:56.070Z,100763.65
2018-10-17T10:57:23.773Z,100759.67
2018-10-17T10:59:51.513Z,100762.04
2018-10-17T11:02:19.324Z,100758.98
2018-10-17T11:04:47.119Z,100754.89
2018-10-17T11:07:14.781Z,100753.33
2018-10-17T11:09:42.485Z,100759.59
2018-10-17T11:12:10.191Z,100753.27
2018-10-17T11:14:38.032Z,100751.78
2018-10-17T11:17:05.677Z,100746.16
2018-10-17T11:19:33.326Z,100742.41
2018-10-17T11:22:01.105Z,100741.75
2018-10-17T11:24:28.755Z,100737.38
2018-10-17T11:26:56.483Z,100735.19
2018-10-17T11:29:24.183Z,100731.33
2018-10-17T11:31:51.919Z,100726.44
2018-10-17T11:34:21.738Z,100727.95
2018-10-17T11:36:49.511Z,100715.98
2018-10-17T11:39:17.320Z,100725.02
2018-10-17T11:41:44.929Z,100723.67
2018-10-17T11:44:12.799Z,100719.23
2018-10-17T11:46:40.506Z,100707.44
2018-10-17T11:49:08.229Z,100709.24
2018-10-17T11:51:35.896Z,100704.67
2018-10-17T11:54:04.353Z,100700.45
2018-10-17T11:56:32.024Z,100698.92
2018-10-17T11:58:59.782Z,100703.02
2018-10-17T12:01:27.821Z,100696.37
2018-10-17T12:03:55.714Z,100698.02
2018-10-17T12:06:23.284Z,100690.33
2018-10-17T12:08:50.931Z,100690.33
2018-10-17T12:11:18.830Z,100687.63
2018-10-17T12:13:46.464Z,100683.91
2018-10-17T12:16:14.569Z,100685.94
2018-10-17T12:18:42.421Z,100677.98
2018-10-17T12:21:10.162Z,100672.16
2018-10-17T12:23:37.801Z,100666.74
2018-10-17T12:26:05.577Z,100662.84
2018-10-17T12:28:33.320Z,100661.23
2018-10-17T12:31:00.904Z,100657.50
2018-10-17T12:33:28.569Z,100651.80
2018-10-17T12:35:56.292Z,100653.11
2018-10-17T12:38:24.006Z,100650.16
2018-10-17T12:40:51.834Z,100650.50
2018-10-17T12:43:19.280Z,100645.73
2018-10-17T12:45:47.039Z,100652.51
2018-10-17T12:48:14.705Z,100650.01
2018-10-17T12:50:43.386Z,100650.06
2018-10-17T12:53:12.439Z,100645.16
2018-10-17T12:55:40.013Z,100642.48
2018-10-17T12:58:07.713Z,100639.33
2018-10-17T13:00:35.380Z,100640.12
2018-10-17T13:03:03.149Z,100638.52
2018-10-17T13:05:30.796Z,100640.08
2018-10-17T13:07:58.524Z,100636.97
2018-10-17T13:10:26.260Z,100635.91
2018-10-17T13:12:54.006Z,100637.30
2018-10-17T13:15:21.726Z,100630.44
2018-10-17T13:17:49.360Z,100635.08
2018-10-17T13:20:17.052Z,100631.97
2018-10-17T13:22:44.734Z,100635.00
2018-10-17T13:25:12.481Z,100625.06
2018-10-17T13:27:40.138Z,100624.98
2018-10-17T13:30:08.347Z,100625.92
2018-10-17T13:32:35.994Z,100625.68
2018-10-17T13:35:04.319Z,100622.52
2018-10-17T13:37:32.014Z,100623.92
2018-10-17T13:39:59.641Z,100622.03
2018-10-17T13:42:27.332Z,100623.14
2018-10-17T13:44:54.984Z,100618.91
2018-10-17T13:47:22.721Z,100626.39
2018-10-17T13:49:50.413Z,100617.97
2018-10-17T13:52:18.147Z,100609.47
2018-10-17T13:54:46.067Z,100617.35
2018-10-17T13:57:13.633Z,100611.77
2018-10-17T13:59:41.361Z,100609.11
2018-10-17T14:02:09.118Z,100609.23
2018-10-17T14:04:36.843Z,100610.63
2018-10-17T14:07:04.610Z,100610.67
2018-10-17T14:09:32.269Z,100612.52
2018-10-17T14:11:59.978Z,100617.64
2018-10-17T14:14:27.881Z,100615.83
2018-10-17T14:16:55.576Z,100605.25
2018-10-17T14:19:28.239Z,100602.30
2018-10-17T14:21:55.897Z,100601.48
2018-10-17T14:24:23.817Z,100603.64
2018-10-17T14:26:51.677Z,100603.89
2018-10-17T14:29:19.436Z,100604.97
2018-10-17T14:31:47.232Z,100600.86
2018-10-17T14:34:14.948Z,100601.02
2018-10-17T14:36:47.357Z,100599.05
2018-10-17T14:39:15.139Z,100591.66
2018-10-17T14:41:43.685Z,100598.69
2018-10-17T14:44:12.709Z,100594.08
2018-10-17T14:46:42.098Z,100587.16
2018-10-17T14:49:10.278Z,100596.42
2018-10-17T14:51:41.882Z,100595.66
2018-10-17T14:54:11.441Z,100601.97
2018-10-17T14:56:39.146Z,100602.05
2018-10-17T14:59:06.892Z,100605.78
2018-10-17T15:01:34.613Z,100601.75
2018-10-17T15:04:02.342Z,100601.79
2018-10-17T15:06:29.988Z,100608.30
2018-10-17T15:08:57.669Z,100605.09
2018-10-17T15:11:25.365Z,100599.95
2018-10-17T15:13:53.317Z,100601.78
2018-10-17T15:16:21.052Z,100600.83
2018-10-17T15:18:48.773Z,100610.08
2018-10-17T15:21:19.405Z,100605.38
2018-10-17T15:23:47.114Z,100602.20
2018-10-17T15:26:14.760Z,100603.70
2018-10-17T15:28:42.517Z,100606.87
2018-10-17T15:31:10.283Z,100603.84
2018-10-17T15:33:37.952Z,100603.09
2018-10-17T15:36:05.871Z,100602.44
2018-10-17T15:38:33.517Z,100603.30
2018-10-17T15:41:01.178Z,100597.05
2018-10-17T15:43:28.954Z,100609.36
2018-10-17T15:45:56.628Z,100605.86
2018-10-17T15:48:28.640Z,100610.45
2018-10-17T15:50:56.483Z,100607.48
2018-10-17T15:53:24.148Z,100603.47
2018-10-17T15:55:51.869Z,100606.09
2018-10-17T15:58:19.633Z,100602.08
2018-10-17T16:00:47.379Z,100608.97
2018-10-17T16:03:15.141Z,100615.25
2018-10-17T16:05:42.804Z,100612.02
2018-10-17T16:08:10.648Z,100614.09
2018-10-17T16:10:38.311Z,100614.89
2018-10-17T16:13:06.027Z,100618.04
2018-10-17T16:15:38.329Z,100614.03
2018-10-17T16:18:06.596Z,100610.05
2018-10-17T16:20:34.233Z,100611.34
2018-10-17T16:23:02.114Z,100608.87
2018-10-17T16:25:29.633Z,100618.16
2018-10-17T16:27:57.338Z,100612.45
2018-10-17T16:30:27.255Z,100611.00
2018-10-17T16:32:54.817Z,100619.20
2018-10-17T16:35:22.538Z,100619.00
2018-10-17T16:37:50.357Z,100625.91
2018-10-17T16:40:18.058Z,100622.48
2018-10-17T16:42:45.814Z,100621.50
2018-10-17T16:45:13.488Z,100623.77
2018-10-17T16:47:41.386Z,100633.02
2018-10-17T16:50:09.111Z,100635.38
2018-10-17T16:52:36.834Z,100637.98
2018-10-17T16:55:06.296Z,100638.08
2018-10-17T16:57:33.984Z,100646.75
2018-10-17T17:00:01.810Z,100641.31
2018-10-17T17:02:29.540Z,100643.94
2018-10-17T17:04:57.226Z,100645.89
2018-10-17T17:07:24.945Z,100646.49
2018-10-17T17:09:52.644Z,100654.61
2018-10-17T17:12:20.397Z,100649.13
2018-10-17T17:14:48.194Z,100649.76
2018-10-17T17:17:15.912Z,100651.47
2018-10-17T17:19:43.722Z,100655.39
2018-10-17T17:22:11.541Z,100648.61
2018-10-17T17:24:39.334Z,100654.40
2018-10-17T17:27:07.137Z,100653.13
2018-10-17T17:29:34.991Z,100650.12
2018-10-17T17:32:02.757Z,100654.02
2018-10-17T17:34:30.496Z,100658.22
2018-10-17T17:36:58.197Z,100656.59
2018-10-17T17:39:25.877Z,100662.12
2018-10-17T17:41:53.599Z,100661.33
2018-10-17T17:44:21.295Z,100664.34
2018-10-17T17:46:48.917Z,100662.19
2018-10-17T17:49:16.568Z,100669.95
2018-10-17T17:51:45.908Z,100672.47
2018-10-17T17:54:14.093Z,100667.80
2018-10-17T17:56:41.889Z,100673.61
2018-10-17T17:59:10.509Z,100669.17
2018-10-17T18:01:39.341Z,100673.04
2018-10-17T18:04:07.913Z,100670.83
2018-10-17T18:06:36.323Z,100669.17
2018-10-17T18:09:07.773Z,100668.89
2018-10-17T18:11:35.672Z,100673.57
2018-10-17T18:14:03.973Z,100676.03
2018-10-17T18:16:32.836Z,100674.64
2018-10-17T18:19:01.005Z,100679.62
2018-10-17T18:21:29.676Z,100681.02
2018-10-17T18:23:59.576Z,100683.50
2018-10-17T18:26:27.548Z,100682.66
2018-10-17T18:28:55.706Z,100684.05
2018-10-17T18:31:25.074Z,100681.83
2018-10-17T18:33:55.058Z,100684.31
2018-10-17T18:36:23.367Z,100686.72
2018-10-17T18:38:51.037Z,100687.54
2018-10-17T18:41:20.630Z,100691.32
2018-10-17T18:43:50.457Z,100691.57
2018-10-17T18:46:18.365Z,100694.66
2018-10-17T18:48:46.045Z,100696.64
2018-10-17T18:51:16.735Z,100689.39
2018-10-17T18:53:44.897Z,100687.70
2018-10-17T18:56:12.654Z,100692.98
2018-10-17T18:58:40.640Z,100692.36
2018-10-17T19:01:08.383Z,100695.98
2018-10-17T19:03:36.186Z,100694.05
2018-10-17T19:06:04.181Z,100698.98
2018-10-17T19:08:31.872Z,100708.05
2018-10-17T19:10:59.996Z,100702.39
2018-10-17T19:13:27.866Z,100706.77
2018-10-17T19:15:55.892Z,100718.47
2018-10-17T19:18:23.658Z,100708.28
2018-10-17T19:20:51.562Z,100716.05
2018-10-17T19:23:20.404Z,100722.34
2018-10-17T19:25:48.289Z,100722.17
2018-10-17T19:28:17.521Z,100719.69
2018-10-17T19:30:45.405Z,100730.39
2018-10-17T19:33:13.650Z,100743.00
2018-10-17T19:35:42.446Z,100733.08
2018-10-17T19:38:10.812Z,100745.89
2018-10-17T19:40:38.712Z,100743.50
2018-10-17T19:43:06.488Z,100741.72
2018-10-17T19:45:34.425Z,100746.86
2018-10-17T19:48:02.292Z,100754.48
2018-10-17T19:50:29.993Z,100752.98
2018-10-17T19:53:05.437Z,100760.02
2018-10-17T19:55:40.683Z,100754.16
2018-10-17T19:58:12.654Z,100762.44
2018-10-17T20:00:44.875Z,100770.20
2018-10-17T20:03:12.923Z,100767.11
2018-10-17T20:05:41.712Z,100764.06
2018-10-17T20:08:09.506Z,100767.28
2018-10-17T20:10:37.187Z,100773.69
2018-10-17T20:13:05.716Z,100770.04
2018-10-17T20:15:34.796Z,100770.97
2018-10-17T20:18:02.601Z,100776.39
2018-10-17T20:20:30.277Z,100774.92
2018-10-17T20:22:58.021Z,100774.09
2018-10-17T20:25:25.758Z,100782.63
2018-10-17T20:27:53.532Z,100773.73
2018-10-17T20:30:21.280Z,100782.19
2018-10-17T20:32:48.965Z,100780.40
2018-10-17T20:35:16.763Z,100778.48
2018-10-17T20:37:44.415Z,100779.80
2018-10-17T20:40:12.221Z,100781.64
2018-10-17T20:42:39.953Z,100782.63
2018-10-17T20:45:07.754Z,100774.66
2018-10-17T20:47:35.498Z,100780.39
2018-10-17T20:50:03.650Z,100781.77
2018-10-17T20:52:31.473Z,100782.26
2018-10-17T20:54:58.981Z,100779.59
2018-10-17T20:57:26.817Z,100780.80
2018-10-17T20:59:54.593Z,100780.43
2018-10-17T21:02:22.360Z,100779.09
2018-10-17T21:04:50.030Z,100783.12
2018-10-17T21:07:17.793Z,100785.16
2018-10-17T21:09:45.438Z,100782.47
2018-10-17T21:12:13.095Z,100786.95
2018-10-17T21:14:40.801Z,100781.70
2018-10-17T21:17:08.483Z,100790.67
2018-10-17T21:19:36.184Z,100783.07
2018-10-17T21:22:04.264Z,100785.98
2018-10-17T21:24:32.160Z,100781.09
2018-10-17T21:27:00.070Z,100782.21
2018-10-17T21:29:27.920Z,100784.54
2018-10-17T21:31:55.651Z,100785.12
2018-10-17T21:34:23.346Z,100788.89
2018-10-17T21:36:50.989Z,100784.67
2018-10-17T21:39:18.632Z,100783.09
2018-10-17T21:41:46.296Z,100787.98
2018-10-17T21:44:14.182Z,100781.34
2018-10-17T21:46:41.864Z,100780.89
2018-10-17T21:49:09.878Z,100781.02
2018-10-17T21:51:38.265Z,100787.77
2018-10-17T21:54:06.252Z,100782.79
2018-10-17T21:56:34.290Z,100777.73
2018-10-17T21:59:02.176Z,100783.16
2018-10-17T22:01:29.965Z,100780.05
2018-10-17T22:03:57.668Z,100787.20
2018-10-17T22:06:25.383Z,100782.98
2018-10-17T22:08:53.026Z,100782.40
2018-10-17T22:11:20.741Z,100780.34
2018-10-17T22:13:48.428Z,100784.86
2018-10-17T22:16:16.169Z,100790.81
2018-10-17T22:18:43.905Z,100788.25
2018-10-17T22:21:11.612Z,100794.42
2018-10-17T22:23:39.288Z,100797.22
2018-10-17T22:26:07.734Z,100788.10
2018-10-17T22:28:35.396Z,100793.28
2018-10-17T22:31:03.101Z,100787.30
2018-10-17T22:33:31.807Z,100784.05
2018-10-17T22:35:59.549Z,100786.83
2018-10-17T22:38:27.272Z,100788.67
2018-10-17T22:40:54.953Z,100789.34
2018-10-17T22:43:22.705Z,100790.55
2018-10-17T22:45:50.356Z,100789.31
2018-10-17T22:48:18.104Z,100792.06
2018-10-17T22:50:45.869Z,100792.80
2018-10-17T22:53:14.145Z,100791.60
2018-10-17T22:55:41.811Z,100789.69
2018-10-17T22:58:09.473Z,100787.91
2018-10-17T23:00:42.577Z,100791.78
2018-10-17T23:03:10.248Z,100792.98
2018-10-17T23:05:39.486Z,100797.97
2018-10-17T23:08:08.592Z,100797.80
2018-10-17T23:10:36.329Z,100795.22
2018-10-17T23:13:04.284Z,100800.08
2018-10-17T23:15:32.151Z,100801.00
2018-10-17T23:17:59.960Z,100802.49
2018-10-17T23:20:27.705Z,100808.09
2018-10-17T23:22:55.430Z,100801.66
2018-10-17T23:25:23.129Z,100808.70
2018-10-17T23:27:50.813Z,100799.35
2018-10-17T23:30:18.504Z,100800.52
2018-10-17T23:32:46.209Z,100801.02
2018-10-17T23:35:13.893Z,100795.23
2018-10-17T23:37:41.524Z,100795.70
2018-10-17T23:40:09.309Z,100799.52
2018-10-17T23:42:37.651Z,100794.57
2018-10-17T23:45:06.606Z,100795.64
2018-10-17T23:47:34.585Z,100798.02
2018-10-17T23:50:02.449Z,100792.89
2018-10-17T23:52:30.117Z,100793.54
2018-10-17T23:54:57.732Z,100795.88
2018-10-17T23:57:25.422Z,100795.04
2018-10-17T23:59:53.079Z,100794.95
